Time;durP1;ratioP1;P1;durP2;ratioP2;P2;SDS_P1;SDS_P2;PMS_P1;PMS_P2;Temp;Humidity;BMP_temperature;BMP_pressure;BME280_temperature;BME280_humidity;BME280_pressure;Samples;Min_cycle;Max_cycle;Signal;HPM_P1;HPM_P2
2021/11/28 00:02:05;;;;;;;9.40;4.25;;;13.80;80.30;;;;;;1872874;77;21496;-52
2021/11/28 00:04:33;;;;;;;9.63;4.92;;;13.80;80.10;;;;;;1872889;76;21019;-55
2021/11/28 00:07:11;;;;;;;10.23;4.85;;;13.80;80.70;;;;;;1872961;76;21015;-52
2021/11/28 00:14:55;;;;;;;9.98;4.58;;;13.80;80.70;;;;;;1872875;77;21058;-54
2021/11/28 00:17:22;;;;;;;10.43;4.50;;;13.80;80.80;;;;;;1873037;76;21082;-54
2021/11/28 00:19:51;;;;;;;6.35;3.90;;;13.90;80.80;;;;;;1872921;77;21099;-53
2021/11/28 00:22:20;;;;;;;16.90;5.15;;;13.90;81.10;;;;;;1872793;77;21088;-54
2021/11/28 00:24:50;;;;;;;8.18;4.05;;;13.90;81.10;;;;;;1872886;76;21027;-54
2021/11/28 00:27:20;;;;;;;8.98;4.53;;;13.90;80.80;;;;;;1872906;77;21023;-52
2021/11/28 00:29:49;;;;;;;8.05;4.42;;;13.90;81.00;;;;;;1872847;75;21011;-54
2021/11/28 00:32:18;;;;;;;5.28;3.98;;;13.90;81.00;;;;;;1872949;77;21031;-53
2021/11/28 00:34:48;;;;;;;8.23;4.55;;;14.00;81.10;;;;;;1872796;76;21022;-54
2021/11/28 00:37:17;;;;;;;8.68;4.10;;;14.00;81.00;;;;;;1872943;77;21015;-53
2021/11/28 00:39:48;;;;;;;5.70;3.72;;;14.00;80.90;;;;;;1872867;76;21007;-54
2021/11/28 00:42:18;;;;;;;8.08;4.00;;;14.00;81.00;;;;;;1872923;77;21050;-53
2021/11/28 00:44:47;;;;;;;8.35;4.22;;;14.10;81.70;;;;;;1872855;76;20991;-54
2021/11/28 00:47:19;;;;;;;5.20;3.80;;;14.10;81.20;;;;;;1872782;77;21035;-52
2021/11/28 00:50:25;;;;;;;5.17;3.70;;;14.10;81.20;;;;;;1872959;77;21047;-52
2021/11/28 00:52:39;;;;;;;10.93;4.30;;;14.20;81.30;;;;;;1874688;76;21019;-53
2021/11/28 00:55:10;;;;;;;12.13;4.97;;;14.10;81.00;;;;;;1872835;76;21062;-55
2021/11/28 00:57:39;;;;;;;9.48;3.72;;;14.20;81.30;;;;;;1872853;77;21043;-52
2021/11/28 01:00:11;;;;;;;9.28;4.35;;;14.20;81.30;;;;;;1872975;76;21531;-51
2021/11/28 01:02:42;;;;;;;8.88;3.55;;;14.20;81.50;;;;;;1872891;77;21078;-52
2021/11/28 01:05:12;;;;;;;11.78;3.85;;;14.20;81.60;;;;;;1872842;76;21011;-54
2021/11/28 01:07:41;;;;;;;8.00;3.80;;;14.20;81.20;;;;;;1872845;77;21011;-51
2021/11/28 01:10:11;;;;;;;4.55;3.25;;;14.20;81.20;;;;;;1872894;76;20987;-50
2021/11/28 01:12:42;;;;;;;8.18;4.70;;;14.20;81.30;;;;;;1872951;77;21502;-53
2021/11/28 01:15:13;;;;;;;5.35;4.30;;;14.20;81.10;;;;;;1872834;76;21013;-54
2021/11/28 01:17:43;;;;;;;6.75;3.92;;;14.20;81.10;;;;;;1872943;77;21575;-52
2021/11/28 01:20:12;;;;;;;9.00;4.25;;;14.30;81.10;;;;;;1872792;77;21067;-53
2021/11/28 01:22:42;;;;;;;9.63;4.03;;;14.20;81.00;;;;;;1872882;77;21152;-53
2021/11/28 01:25:13;;;;;;;5.12;3.92;;;14.30;81.00;;;;;;1872826;77;21089;-52
2021/11/28 01:27:43;;;;;;;9.28;3.98;;;14.30;81.00;;;;;;1872904;76;21058;-51
2021/11/28 01:30:14;;;;;;;8.63;4.50;;;14.30;81.00;;;;;;1872845;77;21057;-54
2021/11/28 01:32:45;;;;;;;6.20;4.30;;;14.30;80.90;;;;;;1887118;76;21003;-54
2021/11/28 01:35:17;;;;;;;9.83;4.00;;;14.30;81.00;;;;;;1872759;75;21031;-53
2021/11/28 01:37:47;;;;;;;8.90;3.90;;;14.30;80.90;;;;;;1873027;77;21039;-53
2021/11/28 01:40:18;;;;;;;7.15;4.37;;;14.30;80.70;;;;;;1872948;76;20991;-53
2021/11/28 01:42:56;;;;;;;7.45;4.72;;;14.40;80.80;;;;;;1872869;76;21073;-54
2021/11/28 01:45:28;;;;;;;7.67;4.10;;;14.40;80.80;;;;;;1872688;76;21109;-54
2021/11/28 01:48:02;;;;;;;5.80;3.85;;;14.30;80.70;;;;;;1872723;76;21091;-53
2021/11/28 01:50:33;;;;;;;8.53;5.20;;;14.30;80.70;;;;;;1872845;77;21015;-53
2021/11/28 01:53:03;;;;;;;14.03;4.75;;;14.30;80.90;;;;;;1872832;76;21113;-53
2021/11/28 01:55:34;;;;;;;12.18;5.10;;;14.30;80.80;;;;;;1878186;76;21038;-53
2021/11/28 01:58:06;;;;;;;11.75;3.92;;;14.30;80.90;;;;;;1891533;76;21050;-54
2021/11/28 02:00:38;;;;;;;7.97;4.22;;;14.30;81.10;;;;;;1891640;75;21083;-52
2021/11/28 02:03:10;;;;;;;7.08;4.17;;;14.30;81.10;;;;;;1891777;76;21054;-53
2021/11/28 02:05:44;;;;;;;7.20;4.55;;;14.30;81.00;;;;;;1891683;75;21492;-51
2021/11/28 02:08:14;;;;;;;7.05;4.47;;;14.30;80.90;;;;;;1891794;76;21034;-53
2021/11/28 02:10:43;;;;;;;8.33;4.37;;;14.30;81.00;;;;;;1891648;75;21065;-54
2021/11/28 02:13:13;;;;;;;8.35;4.45;;;14.30;80.80;;;;;;1891722;76;21054;-50
2021/11/28 02:15:43;;;;;;;6.80;4.03;;;14.30;80.70;;;;;;1891648;75;21151;-53
2021/11/28 02:18:13;;;;;;;6.37;3.27;;;14.30;80.70;;;;;;1891622;76;21073;-52
2021/11/28 02:20:44;;;;;;;5.95;4.30;;;14.30;80.70;;;;;;1891693;76;21073;-54
2021/11/28 02:23:14;;;;;;;7.15;4.20;;;14.20;80.60;;;;;;1891565;76;21026;-53
2021/11/28 02:25:43;;;;;;;8.03;4.75;;;14.20;80.40;;;;;;1891717;75;21135;-52
2021/11/28 02:28:13;;;;;;;8.13;3.62;;;14.30;80.40;;;;;;1891653;76;21062;-53
2021/11/28 02:30:42;;;;;;;7.80;4.15;;;14.30;80.30;;;;;;1891727;75;21077;-53
2021/11/28 02:33:12;;;;;;;7.35;4.40;;;14.30;80.40;;;;;;1891731;76;21018;-54
2021/11/28 02:35:42;;;;;;;8.93;4.70;;;14.30;80.40;;;;;;1891638;76;21014;-50
2021/11/28 02:38:12;;;;;;;7.67;3.85;;;14.20;80.30;;;;;;1891609;75;21014;-54
2021/11/28 02:40:43;;;;;;;9.60;4.62;;;14.30;80.30;;;;;;1891616;75;21080;-51
2021/11/28 02:43:14;;;;;;;8.25;4.20;;;14.30;80.30;;;;;;1898615;75;21027;-54
2021/11/28 02:45:44;;;;;;;7.00;4.28;;;14.30;80.40;;;;;;1891621;76;21022;-53
2021/11/28 02:48:15;;;;;;;5.08;3.70;;;14.30;80.40;;;;;;1891597;76;21059;-54
2021/11/28 02:50:46;;;;;;;10.48;4.10;;;14.20;80.30;;;;;;1891696;75;20987;-53
2021/11/28 02:53:16;;;;;;;6.47;3.77;;;14.30;80.30;;;;;;1891694;76;21084;-54
2021/11/28 02:55:49;;;;;;;8.68;3.87;;;14.20;80.10;;;;;;1889289;76;21112;-53
2021/11/28 02:58:20;;;;;;;11.43;8.25;;;14.30;80.10;;;;;;1872966;77;21489;-51
2021/11/28 03:00:55;;;;;;;8.50;4.33;;;14.30;79.90;;;;;;1872880;77;21054;-52
2021/11/28 03:03:26;;;;;;;9.25;4.58;;;14.30;79.80;;;;;;1872806;77;21047;-52
2021/11/28 03:05:56;;;;;;;8.00;4.22;;;14.30;79.70;;;;;;1872872;77;21039;-54
2021/11/28 03:08:25;;;;;;;5.67;3.95;;;14.30;79.60;;;;;;1872732;77;20991;-52
2021/11/28 03:10:56;;;;;;;8.38;4.42;;;14.30;79.40;;;;;;1872804;77;21011;-54
2021/11/28 03:13:30;;;;;;;5.42;3.90;;;14.30;79.30;;;;;;1872724;77;21011;-54
2021/11/28 03:16:03;;;;;;;7.53;3.98;;;14.30;79.30;;;;;;1873106;77;21043;-51
2021/11/28 03:18:33;;;;;;;6.53;4.20;;;14.30;79.10;;;;;;1872788;77;21070;-51
2021/11/28 03:21:04;;;;;;;10.03;5.10;;;14.30;79.10;;;;;;1872918;77;21015;-53
2021/11/28 03:23:35;;;;;;;4.85;3.45;;;14.30;79.10;;;;;;1872706;76;21492;-53
2021/11/28 03:26:13;;;;;;;9.35;6.03;;;14.30;79.00;;;;;;1872867;77;21015;-51
2021/11/28 03:28:45;;;;;;;7.50;4.95;;;14.30;79.10;;;;;;1872156;76;21485;-53
2021/11/28 03:31:16;;;;;;;9.85;5.03;;;14.20;79.00;;;;;;1873126;77;21065;-54
2021/11/28 03:34:03;;;;;;;6.55;4.72;;;14.20;79.00;;;;;;1875042;76;21023;-51
2021/11/28 03:36:36;;;;;;;11.30;4.40;;;14.20;79.00;;;;;;1872972;76;21083;-53
2021/11/28 03:39:08;;;;;;;7.22;4.00;;;14.20;79.00;;;;;;1872901;76;21501;-53
2021/11/28 03:41:38;;;;;;;6.45;4.00;;;14.10;79.00;;;;;;1872886;77;21031;-52
2021/11/28 03:44:08;;;;;;;8.98;4.25;;;14.10;79.10;;;;;;1872775;77;21031;-54
2021/11/28 03:46:39;;;;;;;8.83;4.62;;;14.10;79.70;;;;;;1874209;76;21075;-53
2021/11/28 03:49:08;;;;;;;7.78;4.72;;;14.00;79.10;;;;;;1872914;77;21047;-54
2021/11/28 03:51:38;;;;;;;9.80;5.17;;;14.00;79.30;;;;;;1872835;77;21089;-51
2021/11/28 03:54:09;;;;;;;4.85;4.05;;;14.00;79.40;;;;;;1872906;76;21112;-52
2021/11/28 03:56:39;;;;;;;5.20;3.95;;;14.00;79.50;;;;;;1872871;76;21047;-52
2021/11/28 03:59:09;;;;;;;10.38;3.92;;;13.90;79.70;;;;;;1872910;76;21100;-54
2021/11/28 04:01:39;;;;;;;7.70;4.28;;;13.90;79.80;;;;;;1872911;77;21031;-55
2021/11/28 04:04:09;;;;;;;5.78;4.33;;;13.90;79.80;;;;;;1872711;76;21031;-53
2021/11/28 04:06:46;;;;;;;9.00;5.08;;;13.90;79.90;;;;;;1874277;76;21059;-53
2021/11/28 04:09:15;;;;;;;6.28;3.80;;;13.90;79.80;;;;;;1872722;76;21081;-54
2021/11/28 04:11:45;;;;;;;8.90;5.05;;;13.90;80.10;;;;;;1872716;76;21081;-53
2021/11/28 04:14:16;;;;;;;7.60;4.00;;;13.90;80.10;;;;;;1872797;77;21015;-51
2021/11/28 04:16:46;;;;;;;8.80;4.37;;;13.90;80.10;;;;;;1872723;77;21039;-53
2021/11/28 04:19:15;;;;;;;7.95;5.30;;;14.00;80.30;;;;;;1872817;77;21035;-54
2021/11/28 04:21:46;;;;;;;9.48;4.55;;;14.00;80.30;;;;;;1872729;76;21112;-53
2021/11/28 04:24:17;;;;;;;8.38;4.45;;;14.00;80.30;;;;;;1872594;76;21073;-54
2021/11/28 04:26:46;;;;;;;7.12;4.15;;;14.00;80.30;;;;;;1872758;76;21038;-53
2021/11/28 04:29:17;;;;;;;6.90;4.08;;;14.00;80.30;;;;;;1872642;76;21097;-55
2021/11/28 04:31:48;;;;;;;8.98;4.50;;;14.00;80.30;;;;;;1872860;75;21502;-54
2021/11/28 04:34:18;;;;;;;10.18;4.37;;;14.00;80.30;;;;;;1872676;77;20999;-54
2021/11/28 04:36:48;;;;;;;13.48;12.07;;;14.00;80.30;;;;;;1872701;77;21160;-52
2021/11/28 04:39:17;;;;;;;10.50;5.37;;;14.00;80.30;;;;;;1872726;76;21019;-54
2021/11/28 04:41:47;;;;;;;11.83;4.50;;;14.00;81.00;;;;;;1872771;77;21153;-53
2021/11/28 04:44:17;;;;;;;6.33;3.55;;;13.90;80.30;;;;;;1872767;77;21034;-55
2021/11/28 04:46:47;;;;;;;8.20;4.00;;;13.90;80.50;;;;;;1872660;77;21184;-54
2021/11/28 04:49:16;;;;;;;7.53;4.17;;;13.90;80.30;;;;;;1872666;76;21023;-52
2021/11/28 04:51:46;;;;;;;7.58;3.95;;;13.90;80.40;;;;;;1872820;76;21062;-53
2021/11/28 04:54:15;;;;;;;10.82;4.58;;;13.80;80.40;;;;;;1872911;76;21047;-52
2021/11/28 04:56:45;;;;;;;7.87;3.50;;;13.80;80.60;;;;;;1872872;76;21088;-53
2021/11/28 04:59:14;;;;;;;8.48;4.67;;;13.80;80.70;;;;;;1872915;76;21434;-52
2021/11/28 05:01:44;;;;;;;9.60;4.78;;;13.80;80.70;;;;;;1872929;77;21073;-53
2021/11/28 05:04:22;;;;;;;9.10;4.97;;;13.70;80.80;;;;;;1872806;76;21079;-54
2021/11/28 05:07:05;;;;;;;6.15;4.37;;;13.70;80.90;;;;;;1862721;76;21039;-52
2021/11/28 05:09:38;;;;;;;10.03;4.65;;;13.70;80.90;;;;;;1872440;76;21084;-54
2021/11/28 05:12:08;;;;;;;8.33;5.62;;;13.70;80.90;;;;;;1872750;76;20991;-52
2021/11/28 05:14:39;;;;;;;7.12;4.90;;;13.70;80.80;;;;;;1872698;76;21022;-53
2021/11/28 05:17:09;;;;;;;11.28;5.30;;;13.70;80.80;;;;;;1872806;77;21015;-53
2021/11/28 05:19:40;;;;;;;9.98;5.20;;;13.70;81.00;;;;;;1872889;76;21125;-50
2021/11/28 05:22:11;;;;;;;10.10;5.17;;;13.70;81.10;;;;;;1870709;76;21042;-54
2021/11/28 05:24:42;;;;;;;8.43;5.47;;;13.70;81.10;;;;;;1872806;76;21058;-54
2021/11/28 05:27:11;;;;;;;7.60;4.12;;;13.70;81.20;;;;;;1872792;76;21023;-53
2021/11/28 05:29:41;;;;;;;9.40;4.95;;;13.70;81.20;;;;;;1872860;76;21050;-54
2021/11/28 05:32:10;;;;;;;9.25;4.85;;;13.70;81.30;;;;;;1872841;77;21019;-54
2021/11/28 05:34:58;;;;;;;8.60;4.72;;;13.70;81.80;;;;;;1872750;76;21035;-49
2021/11/28 05:37:46;;;;;;;5.47;4.10;;;13.70;81.10;;;;;;1872770;76;21094;-54
2021/11/28 05:40:16;;;;;;;8.13;4.33;;;13.60;81.10;;;;;;1873012;76;21163;-54
2021/11/28 05:42:51;;;;;;;6.67;4.58;;;13.60;81.20;;;;;;1872831;76;21097;-52
2021/11/28 05:45:22;;;;;;;7.35;3.95;;;13.60;81.50;;;;;;1872928;76;21047;-50
2021/11/28 05:47:53;;;;;;;5.30;3.92;;;13.60;81.40;;;;;;1872736;76;21071;-52
2021/11/28 05:50:28;;;;;;;5.33;3.72;;;13.60;81.30;;;;;;1873488;76;21083;-51
2021/11/28 05:52:58;;;;;;;8.65;3.92;;;13.60;81.70;;;;;;1872773;76;21039;-52
2021/11/28 05:55:28;;;;;;;7.92;4.47;;;13.70;81.70;;;;;;1872743;77;21098;-51
2021/11/28 05:57:58;;;;;;;6.65;4.17;;;13.70;81.60;;;;;;1878220;76;21104;-50
2021/11/28 06:00:29;;;;;;;8.05;5.53;;;13.80;81.50;;;;;;1891524;75;21082;-53
2021/11/28 06:03:02;;;;;;;8.83;4.55;;;13.80;81.40;;;;;;1891396;76;21039;-51
2021/11/28 06:05:45;;;;;;;12.88;5.78;;;13.80;81.40;;;;;;1891458;75;21074;-53
2021/11/28 06:08:31;;;;;;;8.25;4.10;;;13.90;81.30;;;;;;1892436;75;21158;-53
2021/11/28 06:11:01;;;;;;;11.08;4.78;;;14.00;81.30;;;;;;1890951;75;21111;-54
2021/11/28 06:13:32;;;;;;;10.75;4.72;;;14.00;81.20;;;;;;1891658;76;21080;-53
2021/11/28 06:16:19;;;;;;;13.72;4.78;;;14.00;81.30;;;;;;1867339;77;21124;-52
2021/11/28 06:19:06;;;;;;;6.95;4.35;;;14.00;81.10;;;;;;1886896;75;21034;-50
2021/11/28 06:21:55;;;;;;;9.15;5.33;;;14.10;81.10;;;;;;1891569;75;21128;-51
2021/11/28 06:24:26;;;;;;;8.88;4.80;;;14.10;81.10;;;;;;1891606;75;21078;-51
2021/11/28 06:26:57;;;;;;;11.05;5.58;;;14.10;81.00;;;;;;1891868;75;21119;-52
2021/11/28 06:29:27;;;;;;;12.37;4.78;;;14.20;81.10;;;;;;1891474;76;20994;-54
2021/11/28 06:31:57;;;;;;;8.88;4.47;;;14.20;81.10;;;;;;1891481;75;21054;-52
2021/11/28 06:34:40;;;;;;;11.25;5.12;;;14.30;81.10;;;;;;1875095;75;21050;-51
2021/11/28 06:37:14;;;;;;;7.30;4.07;;;14.30;81.10;;;;;;1877372;75;21093;-51
2021/11/28 06:39:57;;;;;;;12.55;5.70;;;14.40;81.00;;;;;;1891960;75;21063;-51
2021/11/28 06:42:29;;;;;;;11.08;5.47;;;14.50;80.90;;;;;;1891799;75;21007;-49
2021/11/28 06:44:58;;;;;;;18.23;6.90;;;14.60;80.80;;;;;;1891626;76;21034;-54
2021/11/28 06:47:28;;;;;;;12.37;7.50;;;14.60;80.70;;;;;;1891514;76;21019;-54
2021/11/28 06:49:57;;;;;;;12.25;5.87;;;14.70;80.80;;;;;;1891418;76;21096;-53
2021/11/28 06:52:28;;;;;;;6.85;4.35;;;14.70;80.70;;;;;;1876134;75;21049;-50
2021/11/28 06:54:59;;;;;;;9.08;6.28;;;14.80;80.60;;;;;;1876198;75;21148;-54
2021/11/28 06:57:30;;;;;;;7.70;4.08;;;14.80;80.50;;;;;;1891428;76;21100;-51
2021/11/28 07:00:00;;;;;;;10.72;4.15;;;14.90;80.60;;;;;;1874779;75;21129;-54
2021/11/28 07:02:30;;;;;;;6.47;3.95;;;14.90;80.60;;;;;;1872612;77;21023;-53
2021/11/28 07:05:18;;;;;;;6.40;3.98;;;14.90;80.60;;;;;;1872809;77;21501;-54
2021/11/28 07:07:49;;;;;;;7.72;4.58;;;15.00;80.50;;;;;;1872886;76;21031;-51
2021/11/28 07:10:18;;;;;;;6.47;4.78;;;15.00;80.50;;;;;;1872845;77;20999;-51
2021/11/28 07:12:50;;;;;;;12.55;4.03;;;15.10;80.60;;;;;;1872679;76;21093;-51
2021/11/28 07:15:24;;;;;;;7.22;4.15;;;15.10;80.50;;;;;;1872719;77;21090;-55
2021/11/28 07:17:54;;;;;;;5.97;3.42;;;15.20;80.40;;;;;;1872770;76;21078;-52
2021/11/28 07:20:34;;;;;;;7.75;5.17;;;15.30;80.20;;;;;;1867679;76;21106;-53
2021/11/28 07:23:05;;;;;;;8.60;5.15;;;15.30;80.10;;;;;;1860535;77;21043;-54
2021/11/28 07:25:35;;;;;;;8.65;4.62;;;15.40;80.00;;;;;;1872730;77;21113;-52
2021/11/28 07:28:06;;;;;;;8.45;4.62;;;15.40;80.10;;;;;;1874132;76;21058;-53
2021/11/28 07:30:36;;;;;;;7.72;4.45;;;15.40;80.70;;;;;;1872609;76;21035;-54
2021/11/28 07:33:08;;;;;;;6.80;4.20;;;15.50;80.00;;;;;;1873588;76;21038;-53
2021/11/28 07:35:56;;;;;;;5.65;3.67;;;15.50;79.90;;;;;;1872468;77;21060;-53
2021/11/28 07:38:27;;;;;;;6.70;4.08;;;15.60;79.80;;;;;;1873199;76;21485;-53
2021/11/28 07:40:57;;;;;;;6.83;3.85;;;15.70;79.40;;;;;;1872756;76;21015;-54
2021/11/28 07:43:38;;;;;;;11.00;4.58;;;15.70;79.40;;;;;;1864913;76;21147;-54
2021/11/28 07:46:12;;;;;;;7.15;3.55;;;15.80;79.30;;;;;;1863861;76;21105;-50
2021/11/28 07:48:59;;;;;;;11.22;3.65;;;15.80;79.00;;;;;;1872651;77;21490;-50
2021/11/28 07:51:31;;;;;;;6.45;3.92;;;15.80;78.70;;;;;;1872567;76;21079;-54
2021/11/28 07:54:01;;;;;;;5.58;3.40;;;15.80;78.50;;;;;;1860709;77;21088;-54
2021/11/28 07:56:32;;;;;;;5.20;3.10;;;15.90;78.60;;;;;;1872799;77;21027;-54
2021/11/28 07:59:10;;;;;;;5.40;3.75;;;15.90;78.60;;;;;;1870805;76;21074;-52
2021/11/28 08:01:43;;;;;;;8.73;3.58;;;15.90;78.30;;;;;;1890832;75;21045;-55
2021/11/28 08:04:15;;;;;;;7.47;4.03;;;15.90;78.20;;;;;;1891805;75;21061;-53
2021/11/28 08:07:06;;;;;;;7.30;3.50;;;15.90;78.10;;;;;;1891342;76;21067;-51
2021/11/28 08:09:52;;;;;;;7.62;3.77;;;15.80;78.10;;;;;;1891638;76;21107;-53
2021/11/28 08:12:23;;;;;;;6.58;2.95;;;15.80;78.20;;;;;;1871680;76;21095;-53
2021/11/28 08:14:53;;;;;;;8.18;3.62;;;15.80;78.30;;;;;;1891454;75;21092;-54
2021/11/28 08:17:34;;;;;;;10.28;3.72;;;15.80;78.40;;;;;;1891411;75;21096;-55
2021/11/28 08:20:06;;;;;;;18.77;4.12;;;15.90;78.30;;;;;;1891415;75;21027;-54
2021/11/28 08:22:37;;;;;;;7.28;4.05;;;15.90;78.30;;;;;;1891083;75;21010;-55
2021/11/28 08:25:09;;;;;;;8.08;3.30;;;16.00;78.00;;;;;;1891660;76;21030;-55
2021/11/28 08:27:40;;;;;;;6.55;3.67;;;16.00;77.90;;;;;;1891478;75;21023;-53
2021/11/28 08:30:14;;;;;;;5.70;2.75;;;16.00;78.00;;;;;;1891636;76;21208;-53
2021/11/28 08:33:04;;;;;;;8.10;3.58;;;16.10;77.90;;;;;;1891531;76;21067;-54
2021/11/28 08:35:50;;;;;;;7.20;3.90;;;16.10;77.80;;;;;;1888398;75;21071;-53
2021/11/28 08:38:21;;;;;;;5.47;3.45;;;16.10;77.70;;;;;;1891664;75;21038;-54
2021/11/28 08:40:53;;;;;;;6.33;3.70;;;16.10;77.50;;;;;;1891572;76;21167;-54
2021/11/28 08:43:23;;;;;;;7.85;3.92;;;16.10;77.60;;;;;;1891484;75;21054;-51
2021/11/28 08:45:54;;;;;;;11.40;3.65;;;16.20;77.60;;;;;;1891552;75;21072;-54
2021/11/28 08:48:26;;;;;;;7.42;3.60;;;16.20;77.50;;;;;;1891494;76;21026;-54
2021/11/28 08:51:02;;;;;;;6.22;3.67;;;16.20;77.40;;;;;;1891424;75;21007;-54
2021/11/28 08:53:34;;;;;;;10.18;4.17;;;16.30;77.40;;;;;;1891523;76;20986;-54
2021/11/28 08:56:04;;;;;;;6.67;3.67;;;16.20;77.20;;;;;;1891576;76;21027;-53
2021/11/28 08:58:33;;;;;;;9.33;3.67;;;16.30;77.20;;;;;;1891513;75;21026;-52
2021/11/28 09:01:07;;;;;;;8.88;3.80;;;16.30;77.00;;;;;;1864195;76;21058;-54
2021/11/28 09:03:37;;;;;;;5.92;3.65;;;16.30;77.00;;;;;;1884650;76;21019;-54
2021/11/28 09:06:08;;;;;;;8.03;4.45;;;16.40;77.00;;;;;;1884902;75;21053;-54
2021/11/28 09:08:39;;;;;;;6.17;3.17;;;16.40;77.00;;;;;;1884682;75;21031;-54
2021/11/28 09:11:12;;;;;;;4.97;2.85;;;16.40;76.60;;;;;;1884721;76;21046;-53
2021/11/28 09:13:43;;;;;;;6.37;3.52;;;16.50;76.50;;;;;;1884875;75;21054;-53
2021/11/28 09:16:12;;;;;;;5.85;3.92;;;16.50;76.50;;;;;;1884870;76;21034;-54
2021/11/28 09:18:49;;;;;;;6.62;2.98;;;16.50;76.20;;;;;;1884807;76;21421;-53
2021/11/28 09:21:17;;;;;;;5.42;3.10;;;16.50;76.10;;;;;;1884894;75;21039;-52
2021/11/28 09:26:35;;;;;;;8.95;3.27;;;16.50;75.90;;;;;;1884779;76;21018;-55
2021/11/28 09:29:05;;;;;;;6.75;3.17;;;16.50;75.80;;;;;;1884708;76;21408;-55
2021/11/28 09:31:36;;;;;;;4.85;3.02;;;16.60;75.60;;;;;;1884590;75;21492;-54
2021/11/28 09:34:05;;;;;;;12.55;2.98;;;16.60;75.40;;;;;;1884657;75;21084;-55
2021/11/28 09:36:35;;;;;;;6.78;3.25;;;16.60;74.80;;;;;;1884756;75;21504;-54
2021/11/28 09:39:07;;;;;;;6.03;3.15;;;16.70;74.50;;;;;;1884831;76;21007;-54
2021/11/28 09:41:39;;;;;;;5.12;3.42;;;16.70;74.80;;;;;;1889395;75;21038;-55
2021/11/28 09:44:16;;;;;;;5.70;3.30;;;16.70;74.40;;;;;;1884915;75;21031;-53
2021/11/28 09:46:48;;;;;;;3.20;2.80;;;16.80;74.00;;;;;;1884529;76;21045;-55
2021/11/28 09:49:25;;;;;;;6.78;4.12;;;16.80;73.70;;;;;;1888785;76;21207;-54
2021/11/28 09:51:59;;;;;;;8.18;3.12;;;16.80;73.90;;;;;;1888919;75;21034;-55
2021/11/28 09:54:30;;;;;;;5.30;3.05;;;16.80;73.90;;;;;;1884860;76;21026;-54
2021/11/28 09:57:00;;;;;;;3.75;2.25;;;16.80;73.40;;;;;;1884758;76;21469;-55
2021/11/28 09:59:30;;;;;;;6.60;2.92;;;16.80;73.10;;;;;;1862815;75;21054;-55
2021/11/28 10:02:03;;;;;;;5.33;3.12;;;16.80;73.20;;;;;;1898189;75;21112;-55
2021/11/28 10:04:32;;;;;;;6.92;4.10;;;16.80;73.50;;;;;;1891610;75;21484;-55
2021/11/28 10:07:03;;;;;;;5.08;3.80;;;16.70;73.10;;;;;;1891537;76;21035;-55
2021/11/28 10:09:33;;;;;;;5.10;3.62;;;16.70;73.30;;;;;;1891660;75;20994;-53
2021/11/28 10:12:17;;;;;;;5.90;3.02;;;16.60;73.30;;;;;;1891556;75;21540;-55
2021/11/28 10:14:50;;;;;;;7.47;3.87;;;16.60;73.40;;;;;;1891723;76;21077;-56
2021/11/28 10:17:23;;;;;;;4.25;3.50;;;16.60;73.60;;;;;;1891659;76;21002;-55
2021/11/28 10:19:53;;;;;;;5.22;3.35;;;16.60;73.60;;;;;;1891664;75;20999;-51
2021/11/28 10:22:23;;;;;;;7.00;3.12;;;16.70;73.20;;;;;;1891636;75;21080;-54
2021/11/28 10:25:15;;;;;;;6.47;3.40;;;16.70;73.00;;;;;;1891542;76;20986;-54
2021/11/28 10:27:49;;;;;;;6.47;3.42;;;16.80;73.10;;;;;;1890609;75;21080;-54
2021/11/28 10:30:29;;;;;;;4.67;3.17;;;16.80;73.10;;;;;;1891516;76;21050;-54
2021/11/28 10:33:09;;;;;;;3.62;2.45;;;16.80;72.90;;;;;;1891463;76;21120;-55
2021/11/28 10:35:40;;;;;;;3.95;3.17;;;16.80;72.70;;;;;;1886927;76;20999;-55
2021/11/28 10:38:14;;;;;;;5.05;2.77;;;16.80;72.60;;;;;;1891390;75;21132;-55
2021/11/28 10:40:47;;;;;;;5.15;3.35;;;16.80;72.70;;;;;;1891742;76;21061;-55
2021/11/28 10:43:19;;;;;;;5.97;3.33;;;16.70;72.80;;;;;;1891376;76;21038;-53
2021/11/28 10:45:49;;;;;;;2.85;2.52;;;16.70;73.10;;;;;;1891596;76;21046;-55
2021/11/28 10:48:27;;;;;;;4.35;3.10;;;16.60;73.30;;;;;;1898294;75;21101;-56
2021/11/28 10:50:59;;;;;;;4.30;3.30;;;16.60;73.50;;;;;;1871735;76;21015;-55
2021/11/28 10:53:29;;;;;;;4.62;2.60;;;16.60;73.80;;;;;;1891440;76;21054;-52
2021/11/28 10:56:01;;;;;;;4.08;2.52;;;16.50;73.80;;;;;;1891458;76;21461;-54
2021/11/28 10:58:32;;;;;;;6.60;2.72;;;16.50;73.90;;;;;;1891489;76;21476;-56
2021/11/28 11:01:08;;;;;;;5.00;3.35;;;16.50;74.10;;;;;;1891442;75;21128;-55
2021/11/28 11:04:09;;;;;;;;;;;;;;;;;;;;;
2021/11/28 11:06:27;;;;;;;5.22;2.25;;;16.50;74.30;;;;;;1882333;75;21018;-55
2021/11/28 11:08:56;;;;;;;9.55;3.92;;;16.50;74.30;;;;;;1891206;75;21104;-55
2021/11/28 11:11:31;;;;;;;7.35;4.00;;;16.50;74.40;;;;;;1888835;76;21074;-55
2021/11/28 11:14:06;;;;;;;5.97;3.70;;;16.50;74.60;;;;;;1870643;76;21042;-54
2021/11/28 11:16:45;;;;;;;5.90;3.47;;;16.50;74.60;;;;;;1872170;75;21104;-55
2021/11/28 11:19:45;;;;;;;5.17;2.95;;;16.50;74.80;;;;;;1890792;75;21425;-54
2021/11/28 11:22:19;;;;;;;5.60;3.30;;;16.40;74.80;;;;;;1891492;75;21104;-54
2021/11/28 11:24:54;;;;;;;5.05;3.50;;;16.40;75.50;;;;;;1891468;76;21026;-54
2021/11/28 11:27:25;;;;;;;;;;;16.40;75.00;;;;;;1894353;76;21101;-54
2021/11/28 11:29:57;;;;;;;3.87;3.10;;;16.40;75.30;;;;;;1891466;75;20103;-54
2021/11/28 11:32:47;;;;;;;6.17;3.12;;;16.40;75.30;;;;;;1891206;75;21089;-54
2021/11/28 11:35:24;;;;;;;7.05;3.40;;;16.30;75.30;;;;;;1891380;76;21577;-53
2021/11/28 11:37:55;;;;;;;7.20;3.33;;;16.30;75.60;;;;;;1891770;76;21544;-55
2021/11/28 11:40:33;;;;;;;6.65;4.05;;;16.30;75.40;;;;;;1890611;75;21078;-53
2021/11/28 11:43:05;;;;;;;6.53;4.03;;;16.30;75.40;;;;;;1891570;76;21135;-53
2021/11/28 11:45:38;;;;;;;9.00;3.60;;;16.30;75.50;;;;;;1891813;75;21038;-55
2021/11/28 11:48:09;;;;;;;5.20;3.80;;;16.30;75.40;;;;;;1891402;76;21096;-54
2021/11/28 11:50:38;;;;;;;8.43;5.03;;;16.30;75.50;;;;;;1891490;76;21034;-54
2021/11/28 11:53:08;;;;;;;5.87;3.95;;;16.30;75.60;;;;;;1891411;76;21108;-53
2021/11/28 11:55:42;;;;;;;5.92;4.20;;;16.20;75.60;;;;;;1891391;76;21022;-54
2021/11/28 11:58:31;;;;;;;5.23;4.00;;;16.20;75.70;;;;;;1891674;75;21038;-54
2021/11/28 12:01:14;;;;;;;9.15;3.95;;;16.20;75.70;;;;;;1891521;75;21049;-54
2021/11/28 12:03:54;;;;;;;9.45;4.28;;;16.20;75.80;;;;;;1891529;76;21046;-54
2021/11/28 12:06:48;;;;;;;6.72;3.33;;;16.20;75.70;;;;;;1891608;76;21055;-55
2021/11/28 12:09:29;;;;;;;4.92;3.40;;;16.20;75.60;;;;;;1890228;75;21046;-55
2021/11/28 12:12:00;;;;;;;11.70;3.90;;;16.20;75.70;;;;;;1891878;76;21038;-56
2021/11/28 12:14:31;;;;;;;5.28;3.30;;;16.20;75.60;;;;;;1891616;76;21684;-55
2021/11/28 12:17:00;;;;;;;8.55;3.77;;;16.10;75.50;;;;;;1891633;76;21011;-54
2021/11/28 12:19:43;;;;;;;6.70;4.62;;;16.10;75.50;;;;;;1891707;76;21030;-54
2021/11/28 12:22:44;;;;;;;8.48;3.50;;;16.10;75.50;;;;;;1882919;75;21096;-55
2021/11/28 12:25:33;;;;;;;5.65;4.03;;;16.10;75.30;;;;;;1891638;76;21046;-55
2021/11/28 12:28:23;;;;;;;7.17;3.90;;;16.10;75.30;;;;;;1879607;75;21129;-55
2021/11/28 12:30:59;;;;;;;6.20;3.85;;;16.10;75.40;;;;;;1891623;76;21175;-53
2021/11/28 12:33:54;;;;;;;5.80;3.90;;;16.10;75.10;;;;;;1891310;75;21140;-55
2021/11/28 12:36:47;;;;;;;6.05;4.00;;;16.10;75.10;;;;;;1891502;76;21092;-56
2021/11/28 12:39:24;;;;;;;5.85;4.00;;;16.10;75.20;;;;;;1891581;76;21101;-56
2021/11/28 12:42:05;;;;;;;6.65;5.22;;;16.10;75.20;;;;;;1891424;75;21571;-55
2021/11/28 12:44:53;;;;;;;7.37;4.75;;;16.00;75.10;;;;;;1891593;76;21472;-55
2021/11/28 12:47:26;;;;;;;6.55;4.58;;;16.00;75.10;;;;;;1873609;75;21135;-54
2021/11/28 12:50:04;;;;;;;6.92;5.08;;;16.00;75.10;;;;;;1891526;76;21026;-56
2021/11/28 12:52:39;;;;;;;8.93;5.65;;;16.00;75.20;;;;;;1898270;75;21499;-55
2021/11/28 12:55:12;;;;;;;9.98;4.03;;;16.00;75.20;;;;;;1890707;74;21089;-56
2021/11/28 12:57:44;;;;;;;12.65;6.50;;;16.00;75.30;;;;;;1891393;76;21054;-55
2021/11/28 13:00:22;;;;;;;8.48;5.45;;;16.00;75.40;;;;;;1890576;75;21484;-55
2021/11/28 13:03:04;;;;;;;9.30;4.00;;;15.90;75.50;;;;;;1891443;76;21113;-55
2021/11/28 13:05:46;;;;;;;6.12;3.87;;;15.90;75.60;;;;;;1891660;76;21084;-54
2021/11/28 13:08:18;;;;;;;10.93;4.85;;;15.90;75.70;;;;;;1891472;76;21042;-54
2021/11/28 13:10:49;;;;;;;9.45;5.17;;;15.90;75.70;;;;;;1891421;76;21066;-55
2021/11/28 13:13:31;;;;;;;8.80;4.85;;;15.90;75.80;;;;;;1891296;76;21030;-54
2021/11/28 13:16:16;;;;;;;5.87;4.50;;;15.90;75.80;;;;;;1891586;76;21038;-53
2021/11/28 13:18:53;;;;;;;6.35;4.47;;;15.90;75.80;;;;;;1891562;76;21035;-55
2021/11/28 13:21:29;;;;;;;6.95;4.83;;;15.90;75.80;;;;;;1891527;75;21071;-56
2021/11/28 13:24:16;;;;;;;6.87;4.67;;;15.90;75.80;;;;;;1891384;76;21564;-55
2021/11/28 13:26:57;;;;;;;8.30;4.87;;;15.90;75.90;;;;;;1892419;75;21136;-55